Time;durP1;ratioP1;P1;durP2;ratioP2;P2;SDS_P1;SDS_P2;PMS_P1;PMS_P2;Temp;Humidity;BMP_temperature;BMP_pressure;BME280_temperature;BME280_humidity;BME280_pressure;Samples;Min_cycle;Max_cycle;Signal;HPM_P1;HPM_P2
2023/07/23 00:00:47;;;;;;;3.70;3.50;;;;;;;;;;5032110;28;20488;-63
2023/07/23 00:03:14;;;;;;;4.33;3.50;;;;;;;;;;5031272;28;20495;-63
2023/07/23 00:05:40;;;;;;;3.90;3.70;;;;;;;;;;5031892;28;20859;-63
2023/07/23 00:08:06;;;;;;;4.53;3.60;;;;;;;;;;5031607;28;20970;-63
2023/07/23 00:10:32;;;;;;;5.63;4.40;;;;;;;;;;5031858;28;20459;-63
2023/07/23 00:13:01;;;;;;;4.37;3.97;;;;;;;;;;5031850;28;20419;-63
2023/07/23 00:15:29;;;;;;;4.00;3.80;;;;;;;;;;5031699;28;20457;-63
2023/07/23 00:17:57;;;;;;;4.40;4.10;;;;;;;;;;5031633;28;20430;-63
2023/07/23 00:20:25;;;;;;;3.43;3.23;;;;;;;;;;5032061;28;20457;-63
2023/07/23 00:22:51;;;;;;;3.93;3.63;;;;;;;;;;5031506;28;20417;-63
2023/07/23 00:25:17;;;;;;;4.40;3.60;;;;;;;;;;5031673;28;20417;-63
2023/07/23 00:27:43;;;;;;;3.10;3.00;;;;;;;;;;5031343;28;20467;-63
2023/07/23 00:30:12;;;;;;;3.30;3.00;;;;;;;;;;5032072;28;20421;-63
2023/07/23 00:32:40;;;;;;;3.63;3.40;;;;;;;;;;5034056;28;20838;-63
2023/07/23 00:35:06;;;;;;;3.60;3.30;;;;;;;;;;5035218;28;20482;-63
2023/07/23 00:37:32;;;;;;;7.60;3.50;;;;;;;;;;5035356;28;20410;-63
2023/07/23 00:39:58;;;;;;;3.23;3.03;;;;;;;;;;5035187;28;20421;-63
2023/07/23 00:42:24;;;;;;;3.70;3.50;;;;;;;;;;5035296;28;20412;-63
2023/07/23 00:44:50;;;;;;;11.07;3.07;;;;;;;;;;5035081;28;20772;-63
2023/07/23 00:47:20;;;;;;;3.67;3.57;;;;;;;;;;5035193;28;20504;-63
2023/07/23 00:49:46;;;;;;;3.53;3.30;;;;;;;;;;5034985;28;20494;-63
2023/07/23 00:52:12;;;;;;;3.53;3.23;;;;;;;;;;5035038;28;20421;-63
2023/07/23 00:54:38;;;;;;;4.57;4.10;;;;;;;;;;5033742;28;20453;-63
2023/07/23 00:57:06;;;;;;;4.00;3.80;;;;;;;;;;5035026;28;20416;-63
2023/07/23 00:59:32;;;;;;;3.93;3.73;;;;;;;;;;5035105;28;20782;-63
2023/07/23 01:01:58;;;;;;;4.33;4.03;;;;;;;;;;5034705;28;20954;-63
2023/07/23 01:04:25;;;;;;;3.90;3.70;;;;;;;;;;5034809;28;20428;-63
2023/07/23 01:06:54;;;;;;;6.77;4.63;;;;;;;;;;5034734;28;20964;-63
2023/07/23 01:09:20;;;;;;;4.50;3.77;;;;;;;;;;5034817;28;20479;-58
2023/07/23 01:11:47;;;;;;;3.97;3.87;;;;;;;;;;5034735;28;20928;-59
2023/07/23 01:14:13;;;;;;;9.93;3.70;;;;;;;;;;5034684;28;20417;-59
2023/07/23 01:16:41;;;;;;;4.30;3.83;;;;;;;;;;5034747;28;20409;-59
2023/07/23 01:19:07;;;;;;;4.37;4.10;;;;;;;;;;5034464;28;20462;-59
2023/07/23 01:21:33;;;;;;;6.43;4.03;;;;;;;;;;5034479;28;20504;-59
2023/07/23 01:23:59;;;;;;;4.90;4.17;;;;;;;;;;5034411;28;20459;-59
2023/07/23 01:26:25;;;;;;;4.30;4.10;;;;;;;;;;5034554;28;20432;-59
2023/07/23 01:28:51;;;;;;;4.90;4.40;;;;;;;;;;5033925;28;20513;-59
2023/07/23 01:31:17;;;;;;;3.93;3.73;;;;;;;;;;5034491;28;20775;-59
2023/07/23 01:33:43;;;;;;;3.77;3.57;;;;;;;;;;5034320;28;20440;-59
2023/07/23 01:36:10;;;;;;;7.17;3.87;;;;;;;;;;5034247;28;20408;-59
2023/07/23 01:38:38;;;;;;;4.60;4.30;;;;;;;;;;5034299;28;20495;-59
2023/07/23 01:41:05;;;;;;;4.53;4.23;;;;;;;;;;5033880;28;20415;-59
2023/07/23 01:43:33;;;;;;;4.47;4.20;;;;;;;;;;5032901;28;20460;-59
2023/07/23 01:45:59;;;;;;;4.60;4.40;;;;;;;;;;5034072;28;20433;-59
2023/07/23 01:48:25;;;;;;;4.73;4.43;;;;;;;;;;5033912;28;20517;-59
2023/07/23 01:50:51;;;;;;;3.80;3.70;;;;;;;;;;5032393;28;20428;-59
2023/07/23 01:53:17;;;;;;;4.70;4.40;;;;;;;;;;5033750;28;20967;-59
2023/07/23 01:55:43;;;;;;;4.10;3.93;;;;;;;;;;5034060;28;20412;-59
2023/07/23 01:58:09;;;;;;;5.23;4.50;;;;;;;;;;5033023;28;20422;-58
2023/07/23 02:00:38;;;;;;;4.60;4.10;;;;;;;;;;5031870;28;20827;-59
2023/07/23 02:03:04;;;;;;;5.20;4.80;;;;;;;;;;5033135;28;20526;-59
2023/07/23 02:05:30;;;;;;;4.43;4.20;;;;;;;;;;5032575;28;20430;-59
2023/07/23 02:07:56;;;;;;;8.53;4.10;;;;;;;;;;5034168;28;20550;-59
2023/07/23 02:10:22;;;;;;;7.00;4.63;;;;;;;;;;5032103;28;20427;-59
2023/07/23 02:12:48;;;;;;;4.30;3.97;;;;;;;;;;5033529;28;20443;-59
2023/07/23 02:15:14;;;;;;;3.97;3.67;;;;;;;;;;5033412;28;20409;-59
2023/07/23 02:17:40;;;;;;;3.70;3.60;;;;;;;;;;5033685;28;20435;-59
2023/07/23 02:20:06;;;;;;;4.30;3.90;;;;;;;;;;5032211;28;20461;-59
2023/07/23 02:22:35;;;;;;;4.13;3.93;;;;;;;;;;5033545;28;20401;-59
2023/07/23 02:25:01;;;;;;;5.00;4.70;;;;;;;;;;5033464;28;20426;-59
2023/07/23 02:27:27;;;;;;;4.40;4.00;;;;;;;;;;5033037;28;20482;-59
2023/07/23 02:29:53;;;;;;;5.27;4.87;;;;;;;;;;5033217;28;20806;-59
2023/07/23 02:32:21;;;;;;;4.60;4.40;;;;;;;;;;5033133;28;20419;-59
2023/07/23 02:34:47;;;;;;;4.73;4.53;;;;;;;;;;5033569;28;20493;-59
2023/07/23 02:37:15;;;;;;;5.30;5.00;;;;;;;;;;5033097;28;20468;-59
2023/07/23 02:39:41;;;;;;;5.50;5.07;;;;;;;;;;5033114;28;20447;-59
2023/07/23 02:42:07;;;;;;;13.73;4.93;;;;;;;;;;5033184;28;20451;-59
2023/07/23 02:44:36;;;;;;;5.00;4.80;;;;;;;;;;5031763;28;20436;-59
2023/07/23 02:47:03;;;;;;;4.50;4.30;;;;;;;;;;5033103;28;20446;-59
2023/07/23 02:49:29;;;;;;;4.67;4.40;;;;;;;;;;5033036;28;20430;-59
2023/07/23 02:51:55;;;;;;;4.53;4.23;;;;;;;;;;5033005;28;20467;-59
2023/07/23 02:54:21;;;;;;;3.97;3.77;;;;;;;;;;5032427;28;20478;-59
2023/07/23 02:56:47;;;;;;;4.83;4.17;;;;;;;;;;5032854;28;20431;-59
2023/07/23 02:59:13;;;;;;;5.40;5.00;;;;;;;;;;5032907;28;20463;-59
2023/07/23 03:01:39;;;;;;;4.53;4.03;;;;;;;;;;5032349;28;20415;-59
2023/07/23 03:04:05;;;;;;;5.13;4.83;;;;;;;;;;5032627;28;20996;-59
2023/07/23 03:06:31;;;;;;;5.40;5.00;;;;;;;;;;5031208;28;20432;-59
2023/07/23 03:08:59;;;;;;;4.67;4.47;;;;;;;;;;5032340;28;20976;-59
2023/07/23 03:11:28;;;;;;;6.83;4.80;;;;;;;;;;5032634;28;20450;-59
2023/07/23 03:13:54;;;;;;;7.80;4.40;;;;;;;;;;5032345;28;20558;-59
2023/07/23 03:16:20;;;;;;;5.13;4.13;;;;;;;;;;5032287;28;20521;-59
2023/07/23 03:18:46;;;;;;;5.17;4.73;;;;;;;;;;5032684;28;20408;-59
2023/07/23 03:21:14;;;;;;;4.70;4.37;;;;;;;;;;5032448;28;20499;-59
2023/07/23 03:23:41;;;;;;;4.70;4.30;;;;;;;;;;5032267;28;20924;-59
2023/07/23 03:26:07;;;;;;;4.23;4.03;;;;;;;;;;5032411;28;20436;-59
2023/07/23 03:28:33;;;;;;;3.93;3.73;;;;;;;;;;5030909;28;20562;-59
2023/07/23 03:30:59;;;;;;;4.00;3.80;;;;;;;;;;5032077;28;20454;-59
2023/07/23 03:33:27;;;;;;;4.33;4.03;;;;;;;;;;5031932;28;20422;-59
2023/07/23 03:35:53;;;;;;;3.93;3.70;;;;;;;;;;5032368;28;20409;-59
2023/07/23 03:38:19;;;;;;;5.90;4.23;;;;;;;;;;5032260;28;20420;-59
2023/07/23 03:40:45;;;;;;;4.13;3.93;;;;;;;;;;5030806;28;20509;-59
2023/07/23 03:43:11;;;;;;;5.10;4.70;;;;;;;;;;5031665;28;20911;-59
2023/07/23 03:45:37;;;;;;;4.83;4.50;;;;;;;;;;5032024;28;20420;-59
2023/07/23 03:48:04;;;;;;;3.87;3.67;;;;;;;;;;5031924;28;20502;-59
2023/07/23 03:50:33;;;;;;;4.90;4.30;;;;;;;;;;5031899;28;20419;-59
2023/07/23 03:52:59;;;;;;;4.27;4.00;;;;;;;;;;5031753;28;20520;-59
2023/07/23 03:55:25;;;;;;;3.97;3.80;;;;;;;;;;5032185;28;20500;-59
2023/07/23 03:57:51;;;;;;;5.30;4.13;;;;;;;;;;5031566;28;20826;-59
2023/07/23 04:00:17;;;;;;;7.37;4.33;;;;;;;;;;5029340;28;20419;-59
2023/07/23 04:02:45;;;;;;;4.23;4.03;;;;;;;;;;5010736;28;20813;-59
2023/07/23 04:05:11;;;;;;;5.10;4.53;;;;;;;;;;5009601;28;20943;-59
2023/07/23 04:07:37;;;;;;;4.80;4.50;;;;;;;;;;5013351;28;20494;-59
2023/07/23 04:10:03;;;;;;;4.30;4.10;;;;;;;;;;5015666;28;20923;-59
2023/07/23 04:12:33;;;;;;;4.80;4.33;;;;;;;;;;5015657;28;20413;-59
2023/07/23 04:15:03;;;;;;;4.17;3.97;;;;;;;;;;5016033;28;20495;-59
2023/07/23 04:17:29;;;;;;;4.47;4.10;;;;;;;;;;5015896;28;20461;-59
2023/07/23 04:19:58;;;;;;;4.47;4.20;;;;;;;;;;5015616;28;20421;-59
2023/07/23 04:22:24;;;;;;;4.23;4.03;;;;;;;;;;5015914;28;20869;-59
2023/07/23 04:24:50;;;;;;;3.80;3.70;;;;;;;;;;5016111;28;20444;-59
2023/07/23 04:27:16;;;;;;;4.60;3.83;;;;;;;;;;5015845;28;20515;-59
2023/07/23 04:29:42;;;;;;;9.47;4.27;;;;;;;;;;5015808;28;20421;-59
2023/07/23 04:32:08;;;;;;;4.17;3.60;;;;;;;;;;5016039;28;20442;-59
2023/07/23 04:34:34;;;;;;;3.93;3.80;;;;;;;;;;5016161;28;20921;-58
2023/07/23 04:37:02;;;;;;;4.00;3.80;;;;;;;;;;5015617;28;20410;-59
2023/07/23 04:39:31;;;;;;;4.20;3.27;;;;;;;;;;5016015;28;20469;-58
2023/07/23 04:41:56;;;;;;;4.17;3.50;;;;;;;;;;5015301;28;20500;-58
2023/07/23 04:44:23;;;;;;;4.00;3.80;;;;;;;;;;5016024;28;20500;-59
2023/07/23 04:46:49;;;;;;;3.90;3.03;;;;;;;;;;5015560;28;20467;-59
2023/07/23 04:49:15;;;;;;;3.20;3.10;;;;;;;;;;5015483;28;20473;-59
2023/07/23 04:51:41;;;;;;;3.43;3.27;;;;;;;;;;5015140;28;20430;-59
2023/07/23 04:54:09;;;;;;;4.27;3.93;;;;;;;;;;5015412;28;20464;-59
2023/07/23 04:56:35;;;;;;;3.73;3.40;;;;;;;;;;5015262;28;20406;-59
2023/07/23 04:59:01;;;;;;;3.63;3.30;;;;;;;;;;5015372;28;20855;-59
2023/07/23 05:01:27;;;;;;;3.40;3.20;;;;;;;;;;5015216;28;20461;-59
2023/07/23 05:03:56;;;;;;;3.70;3.43;;;;;;;;;;5015096;28;20906;-59
2023/07/23 05:06:26;;;;;;;4.87;3.10;;;;;;;;;;5015031;28;20810;-59
2023/07/23 05:08:52;;;;;;;3.30;3.10;;;;;;;;;;5014910;28;20471;-59
2023/07/23 05:11:18;;;;;;;3.80;3.50;;;;;;;;;;5015041;28;20490;-59
2023/07/23 05:13:44;;;;;;;3.00;2.90;;;;;;;;;;5013939;28;20410;-59
2023/07/23 05:16:10;;;;;;;2.97;2.57;;;;;;;;;;5014932;28;20435;-59
2023/07/23 05:18:36;;;;;;;3.23;2.90;;;;;;;;;;5014577;28;20420;-59
2023/07/23 05:21:05;;;;;;;2.90;2.63;;;;;;;;;;5014738;28;20411;-59
2023/07/23 05:23:34;;;;;;;3.80;3.70;;;;;;;;;;5014740;28;20526;-59
2023/07/23 05:26:00;;;;;;;2.87;2.77;;;;;;;;;;5014616;28;20426;-59
2023/07/23 05:28:26;;;;;;;3.33;2.70;;;;;;;;;;5014515;28;20467;-58
2023/07/23 05:30:59;;;;;;;2.70;2.50;;;;;;;;;;5014416;28;20455;-59
2023/07/23 05:33:25;;;;;;;2.43;2.43;;;;;;;;;;5014101;28;20927;-58
2023/07/23 05:35:51;;;;;;;2.60;2.50;;;;;;;;;;5014618;28;20437;-58
2023/07/23 05:38:18;;;;;;;2.90;2.77;;;;;;;;;;5014662;28;20415;-58
2023/07/23 05:40:44;;;;;;;3.00;2.83;;;;;;;;;;5014442;28;20424;-58
2023/07/23 05:43:16;;;;;;;2.80;2.73;;;;;;;;;;5014340;28;20502;-58
2023/07/23 05:45:44;;;;;;;2.70;2.60;;;;;;;;;;5014619;28;20420;-58
2023/07/23 05:48:10;;;;;;;2.70;2.60;;;;;;;;;;5014374;28;20456;-58
2023/07/23 05:50:39;;;;;;;3.40;2.60;;;;;;;;;;5013152;28;20441;-58
2023/07/23 05:53:04;;;;;;;2.50;2.40;;;;;;;;;;5014237;28;20424;-58
2023/07/23 05:55:33;;;;;;;2.80;2.67;;;;;;;;;;5014222;28;20445;-58
2023/07/23 05:57:59;;;;;;;3.80;2.73;;;;;;;;;;5013990;28;20424;-58
2023/07/23 06:00:25;;;;;;;2.90;2.40;;;;;;;;;;5013735;28;20776;-58
2023/07/23 06:02:51;;;;;;;2.93;2.83;;;;;;;;;;5013389;28;20511;-58
2023/07/23 06:05:19;;;;;;;2.67;2.57;;;;;;;;;;5014127;28;20424;-58
2023/07/23 06:07:45;;;;;;;2.93;2.73;;;;;;;;;;5014360;28;20472;-58
2023/07/23 06:10:11;;;;;;;2.60;2.50;;;;;;;;;;5013992;28;20426;-58
2023/07/23 06:12:37;;;;;;;3.93;2.73;;;;;;;;;;5013866;28;20513;-58
2023/07/23 06:15:06;;;;;;;4.73;2.53;;;;;;;;;;5014053;28;20500;-58
2023/07/23 06:17:32;;;;;;;4.40;2.43;;;;;;;;;;5014079;28;20980;-58
2023/07/23 06:20:00;;;;;;;3.90;2.43;;;;;;;;;;5013797;28;20425;-58
2023/07/23 06:22:29;;;;;;;2.50;2.30;;;;;;;;;;5012461;28;20417;-58
2023/07/23 06:24:55;;;;;;;2.73;2.53;;;;;;;;;;5012927;28;20500;-57
2023/07/23 06:27:21;;;;;;;2.80;2.70;;;;;;;;;;5012624;28;20504;-58
2023/07/23 06:29:47;;;;;;;2.60;2.40;;;;;;;;;;5012407;28;20494;-57
2023/07/23 06:32:15;;;;;;;2.33;2.23;;;;;;;;;;5012623;28;20985;-58
2023/07/23 06:34:41;;;;;;;3.20;3.00;;;;;;;;;;5012799;28;20480;-57
2023/07/23 06:37:07;;;;;;;3.00;2.63;;;;;;;;;;5013563;28;20816;-58
2023/07/23 06:39:38;;;;;;;2.63;2.53;;;;;;;;;;5013520;28;20977;-58
2023/07/23 06:42:04;;;;;;;2.23;2.23;;;;;;;;;;5012955;28;20895;-57
2023/07/23 06:44:32;;;;;;;2.47;2.37;;;;;;;;;;5012478;28;20434;-58
2023/07/23 06:46:58;;;;;;;2.70;2.60;;;;;;;;;;5011785;28;20909;-58
2023/07/23 06:49:28;;;;;;;2.57;2.37;;;;;;;;;;5012632;28;20471;-58
2023/07/23 06:51:57;;;;;;;2.80;2.60;;;;;;;;;;5013171;28;20442;-58
2023/07/23 06:54:26;;;;;;;2.53;2.43;;;;;;;;;;5013122;28;20477;-58
2023/07/23 06:56:52;;;;;;;2.40;2.40;;;;;;;;;;5012987;28;20961;-58
2023/07/23 06:59:18;;;;;;;4.90;2.37;;;;;;;;;;5012720;28;20455;-58
2023/07/23 07:01:44;;;;;;;2.60;2.43;;;;;;;;;;5013503;28;20582;-58
2023/07/23 07:04:10;;;;;;;2.13;2.00;;;;;;;;;;5013115;28;20445;-59
2023/07/23 07:06:36;;;;;;;2.70;2.60;;;;;;;;;;5013174;28;20420;-59
2023/07/23 07:09:02;;;;;;;3.03;2.70;;;;;;;;;;5013350;28;20471;-58
2023/07/23 07:11:28;;;;;;;2.50;2.40;;;;;;;;;;5012936;28;20916;-59
2023/07/23 07:13:54;;;;;;;2.30;2.23;;;;;;;;;;5013180;28;20408;-58
2023/07/23 07:16:20;;;;;;;2.83;2.63;;;;;;;;;;5013247;28;20445;-59
2023/07/23 07:18:46;;;;;;;4.90;2.70;;;;;;;;;;5012909;28;20512;-59
2023/07/23 07:21:12;;;;;;;2.50;2.40;;;;;;;;;;5012831;28;20525;-59
2023/07/23 07:23:38;;;;;;;2.33;2.23;;;;;;;;;;5012666;28;20454;-59
2023/07/23 07:26:04;;;;;;;4.73;2.43;;;;;;;;;;5012887;28;20503;-59
2023/07/23 07:28:30;;;;;;;2.40;2.30;;;;;;;;;;5012857;28;20544;-59
2023/07/23 07:30:59;;;;;;;5.23;2.43;;;;;;;;;;5012618;28;20824;-59
2023/07/23 07:33:25;;;;;;;2.70;2.50;;;;;;;;;;5012925;28;20395;-59
2023/07/23 07:35:57;;;;;;;1.67;1.67;;;;;;;;;;5012861;28;20426;-59
2023/07/23 07:38:26;;;;;;;2.40;2.20;;;;;;;;;;5012665;28;20945;-59
2023/07/23 07:40:52;;;;;;;3.77;2.33;;;;;;;;;;5012503;28;20788;-59
2023/07/23 07:43:19;;;;;;;3.17;1.97;;;;;;;;;;5012708;28;20980;-59
2023/07/23 07:45:48;;;;;;;1.90;1.80;;;;;;;;;;5012119;28;20414;-59
2023/07/23 07:48:14;;;;;;;1.93;1.93;;;;;;;;;;5012550;28;20474;-59
2023/07/23 07:50:40;;;;;;;2.63;2.43;;;;;;;;;;5012531;28;20423;-59
2023/07/23 07:53:06;;;;;;;1.73;1.73;;;;;;;;;;5012719;28;20423;-58
2023/07/23 07:55:38;;;;;;;2.50;2.30;;;;;;;;;;5011364;28;20419;-59
2023/07/23 07:58:07;;;;;;;3.47;2.90;;;;;;;;;;5012850;28;20767;-59
2023/07/23 08:00:33;;;;;;;3.70;3.50;;;;;;;;;;5012144;28;20435;-59
2023/07/23 08:03:00;;;;;;;2.43;2.33;;;;;;;;;;5012128;28;20454;-59
2023/07/23 08:05:26;;;;;;;2.20;2.10;;;;;;;;;;5011036;28;20420;-59
2023/07/23 08:07:54;;;;;;;2.20;2.20;;;;;;;;;;5012316;28;20522;-59
2023/07/23 08:10:20;;;;;;;2.17;2.07;;;;;;;;;;5012442;28;20408;-59
2023/07/23 08:12:47;;;;;;;8.33;2.30;;;;;;;;;;5012301;28;20542;-59
2023/07/23 08:15:13;;;;;;;2.07;1.73;;;;;;;;;;5012494;28;20423;-59
2023/07/23 08:17:42;;;;;;;2.20;2.20;;;;;;;;;;5012284;28;20477;-59
2023/07/23 08:20:09;;;;;;;2.20;2.20;;;;;;;;;;5012632;28;20478;-58
2023/07/23 08:22:35;;;;;;;2.10;2.10;;;;;;;;;;5012320;28;20496;-58
2023/07/23 08:25:01;;;;;;;3.73;3.53;;;;;;;;;;5012321;28;20449;-58
2023/07/23 08:27:29;;;;;;;2.03;2.00;;;;;;;;;;5012221;28;20526;-58
2023/07/23 08:29:56;;;;;;;2.10;2.00;;;;;;;;;;5012041;28;20995;-58
2023/07/23 08:32:25;;;;;;;3.43;2.20;;;;;;;;;;5011424;28;20409;-59
2023/07/23 08:34:51;;;;;;;2.30;2.20;;;;;;;;;;5012103;28;20512;-59
2023/07/23 08:37:17;;;;;;;1.90;1.80;;;;;;;;;;5011768;28;20649;-59
2023/07/23 08:39:45;;;;;;;2.00;1.90;;;;;;;;;;5012182;28;20474;-59
2023/07/23 08:42:30;;;;;;;2.13;1.90;;;;;;;;;;5011988;28;20417;-59
2023/07/23 08:44:56;;;;;;;2.60;1.87;;;;;;;;;;5010597;28;20836;-59
2023/07/23 08:47:22;;;;;;;2.87;2.43;;;;;;;;;;5012338;28;20482;-59
2023/07/23 08:49:48;;;;;;;1.70;1.70;;;;;;;;;;5011948;28;20419;-59
2023/07/23 08:52:15;;;;;;;2.13;2.13;;;;;;;;;;5012448;28;20997;-59
2023/07/23 08:54:43;;;;;;;2.30;2.10;;;;;;;;;;5014370;28;20796;-59
2023/07/23 08:57:09;;;;;;;2.60;2.50;;;;;;;;;;5015597;28;20488;-59
2023/07/23 08:59:36;;;;;;;2.47;2.27;;;;;;;;;;5015180;28;20853;-58
2023/07/23 09:02:02;;;;;;;2.10;2.10;;;;;;;;;;5015136;28;20903;-59
2023/07/23 09:04:28;;;;;;;2.00;1.90;;;;;;;;;;5015271;28;20439;-59
2023/07/23 09:06:57;;;;;;;2.67;2.20;;;;;;;;;;5015427;28;20440;-59
2023/07/23 09:09:23;;;;;;;2.77;2.57;;;;;;;;;;5014893;28;20464;-59
2023/07/23 09:11:49;;;;;;;1.90;1.90;;;;;;;;;;5015314;28;20479;-64
2023/07/23 09:14:16;;;;;;;2.87;2.13;;;;;;;;;;5015242;28;20889;-64
2023/07/23 09:16:43;;;;;;;6.23;2.00;;;;;;;;;;5015236;28;20464;-63
2023/07/23 09:19:12;;;;;;;2.53;2.43;;;;;;;;;;5015109;28;20471;-63
2023/07/23 09:21:39;;;;;;;2.73;2.53;;;;;;;;;;5015324;28;20428;-64
2023/07/23 09:24:07;;;;;;;2.27;2.10;;;;;;;;;;5014313;28;20504;-64
2023/07/23 09:26:33;;;;;;;2.53;2.00;;;;;;;;;;5014655;28;20913;-64
2023/07/23 09:29:00;;;;;;;1.77;1.77;;;;;;;;;;5014279;28;20509;-64
2023/07/23 09:31:27;;;;;;;2.07;2.07;;;;;;;;;;5014906;28;20417;-64
2023/07/23 09:33:56;;;;;;;5.00;1.90;;;;;;;;;;5014915;28;20930;-64
2023/07/23 09:36:23;;;;;;;4.63;2.40;;;;;;;;;;5015114;28;20510;-64
2023/07/23 09:39:07;;;;;;;3.23;3.23;;;;;;;;;;5014998;28;20496;-64
2023/07/23 09:41:35;;;;;;;3.20;3.10;;;;;;;;;;5014982;28;20404;-64
2023/07/23 09:44:11;;;;;;;2.63;2.53;;;;;;;;;;5014617;28;20464;-64
2023/07/23 09:46:38;;;;;;;2.10;2.00;;;;;;;;;;5015179;28;20405;-65
2023/07/23 09:49:04;;;;;;;2.20;2.20;;;;;;;;;;5014444;28;20905;-64
2023/07/23 09:51:34;;;;;;;3.90;2.40;;;;;;;;;;5013581;28;20408;-64
2023/07/23 09:54:03;;;;;;;2.53;2.43;;;;;;;;;;5014459;28;20448;-64
2023/07/23 09:56:30;;;;;;;19.53;2.27;;;;;;;;;;5014571;28;20469;-64
2023/07/23 09:58:57;;;;;;;2.40;2.30;;;;;;;;;;5014464;28;20426;-65
2023/07/23 10:01:26;;;;;;;2.10;2.10;;;;;;;;;;5014329;28;20453;-65
2023/07/23 10:03:54;;;;;;;2.40;2.30;;;;;;;;;;5013364;28;20817;-65
2023/07/23 10:06:22;;;;;;;2.67;2.57;;;;;;;;;;5014075;28;21064;-65
2023/07/23 10:08:49;;;;;;;2.93;2.73;;;;;;;;;;5014055;28;20470;-65
2023/07/23 10:11:16;;;;;;;2.60;2.40;;;;;;;;;;5014517;28;20415;-66
2023/07/23 10:13:43;;;;;;;3.23;2.93;;;;;;;;;;5014146;28;20780;-65
2023/07/23 10:16:10;;;;;;;2.03;2.03;;;;;;;;;;5014307;28;20428;-64
2023/07/23 10:18:37;;;;;;;2.70;2.20;;;;;;;;;;5014070;28;20448;-65
2023/07/23 10:21:05;;;;;;;1.80;1.80;;;;;;;;;;5013908;28;20423;-65
2023/07/23 10:23:31;;;;;;;2.30;2.10;;;;;;;;;;5013997;28;20445;-65
2023/07/23 10:26:19;;;;;;;2.60;2.40;;;;;;;;;;5014106;28;20427;-65
2023/07/23 10:28:45;;;;;;;2.33;2.23;;;;;;;;;;5013736;28;20514;-65
2023/07/23 10:31:25;;;;;;;3.07;1.73;;;;;;;;;;5012493;28;20460;-64
2023/07/23 10:33:51;;;;;;;1.70;1.70;;;;;;;;;;5013816;28;20445;-65
2023/07/23 10:36:23;;;;;;;1.70;1.70;;;;;;;;;;5013547;28;20415;-65
2023/07/23 10:39:09;;;;;;;3.03;2.13;;;;;;;;;;5013715;28;20497;-64
2023/07/23 10:41:55;;;;;;;5.33;2.10;;;;;;;;;;5006489;28;20497;-65
2023/07/23 10:44:27;;;;;;;1.80;1.80;;;;;;;;;;5013545;28;20448;-65
2023/07/23 10:46:54;;;;;;;2.10;2.00;;;;;;;;;;5013412;28;20412;-64
2023/07/23 10:49:24;;;;;;;2.10;1.90;;;;;;;;;;5013352;28;20479;-64
2023/07/23 10:51:53;;;;;;;1.67;1.67;;;;;;;;;;5013492;28;20432;-65
2023/07/23 10:54:20;;;;;;;1.70;1.70;;;;;;;;;;5013405;28;20437;-65
2023/07/23 10:56:49;;;;;;;2.47;2.40;;;;;;;;;;5013539;28;20412;-65
2023/07/23 10:59:16;;;;;;;2.70;2.00;;;;;;;;;;5013304;28;20460;-65
2023/07/23 11:01:43;;;;;;;1.83;1.83;;;;;;;;;;5013520;28;20428;-65
2023/07/23 11:04:16;;;;;;;3.03;2.13;;;;;;;;;;5013478;28;20480;-65
2023/07/23 11:06:58;;;;;;;1.90;1.90;;;;;;;;;;5013327;28;20448;-65
2023/07/23 11:09:28;;;;;;;3.50;2.00;;;;;;;;;;5013030;28;20566;-65
2023/07/23 11:11:55;;;;;;;5.33;1.70;;;;;;;;;;5013426;28;20477;-65
2023/07/23 11:14:22;;;;;;;1.80;1.80;;;;;;;;;;5013073;28;20439;-65
2023/07/23 11:16:49;;;;;;;2.30;2.00;;;;;;;;;;5013035;28;20405;-65
2023/07/23 11:19:16;;;;;;;2.17;2.07;;;;;;;;;;5012933;28;20472;-65
2023/07/23 11:21:51;;;;;;;1.93;1.83;;;;;;;;;;5013100;28;20412;-65
2023/07/23 11:24:21;;;;;;;2.10;2.00;;;;;;;;;;5013127;28;20520;-65
2023/07/23 11:26:47;;;;;;;2.10;2.10;;;;;;;;;;5013213;28;20759;-65
2023/07/23 11:29:16;;;;;;;2.37;2.17;;;;;;;;;;5012868;28;20476;-65
2023/07/23 11:31:45;;;;;;;2.70;2.50;;;;;;;;;;5013064;28;20428;-64
2023/07/23 11:34:12;;;;;;;2.67;2.50;;;;;;;;;;5012840;28;20436;-65
2023/07/23 11:36:39;;;;;;;2.57;2.47;;;;;;;;;;5013245;28;20500;-65
2023/07/23 11:39:06;;;;;;;2.13;2.03;;;;;;;;;;5012753;28;20933;-64
2023/07/23 11:41:33;;;;;;;2.43;2.30;;;;;;;;;;5012787;28;20915;-65
2023/07/23 11:44:03;;;;;;;3.40;3.30;;;;;;;;;;5011168;28;20831;-65
2023/07/23 11:46:29;;;;;;;2.27;2.17;;;;;;;;;;5012829;28;20400;-65
2023/07/23 11:48:55;;;;;;;3.80;3.70;;;;;;;;;;5012644;28;20959;-65
2023/07/23 11:51:22;;;;;;;3.83;3.00;;;;;;;;;;5012607;28;20504;-65
2023/07/23 11:53:50;;;;;;;2.20;2.20;;;;;;;;;;5011595;28;20830;-65
2023/07/23 11:56:23;;;;;;;2.27;2.27;;;;;;;;;;5012702;28;20455;-65
2023/07/23 11:58:51;;;;;;;2.00;2.00;;;;;;;;;;5012522;28;20982;-65
2023/07/23 12:01:20;;;;;;;2.30;2.20;;;;;;;;;;5012733;28;20405;-65
2023/07/23 12:03:48;;;;;;;2.30;2.30;;;;;;;;;;5012037;28;20464;-64
2023/07/23 12:06:15;;;;;;;2.10;2.00;;;;;;;;;;5012717;28;20915;-65
2023/07/23 12:08:45;;;;;;;1.90;1.80;;;;;;;;;;5012327;28;20483;-65
2023/07/23 12:11:15;;;;;;;7.03;2.37;;;;;;;;;;5012305;28;20432;-65
2023/07/23 12:13:44;;;;;;;1.80;1.80;;;;;;;;;;5012470;28;20955;-65
2023/07/23 12:16:12;;;;;;;2.33;2.10;;;;;;;;;;5012335;28;20935;-64
2023/07/23 12:18:45;;;;;;;1.73;1.73;;;;;;;;;;5012427;28;20416;-65
2023/07/23 12:21:17;;;;;;;2.33;2.03;;;;;;;;;;5012291;28;20429;-64
2023/07/23 12:23:43;;;;;;;1.87;1.87;;;;;;;;;;5012389;28;20440;-65
2023/07/23 12:26:11;;;;;;;2.20;2.20;;;;;;;;;;5012329;28;20421;-65
2023/07/23 12:28:37;;;;;;;2.37;2.23;;;;;;;;;;5014814;28;20836;-65
2023/07/23 12:31:03;;;;;;;2.40;2.30;;;;;;;;;;5015937;28;20459;-65
2023/07/23 12:33:29;;;;;;;2.00;2.00;;;;;;;;;;5015120;28;20424;-65
2023/07/23 12:35:55;;;;;;;2.40;2.40;;;;;;;;;;5016201;28;20408;-65
2023/07/23 12:38:21;;;;;;;3.50;3.30;;;;;;;;;;5016205;28;20858;-65
2023/07/23 12:40:47;;;;;;;2.60;2.60;;;;;;;;;;5015909;28;20431;-65
2023/07/23 12:43:13;;;;;;;2.20;2.20;;;;;;;;;;5015914;28;20421;-65
2023/07/23 12:45:39;;;;;;;2.43;2.33;;;;;;;;;;5015934;28;20942;-65
2023/07/23 12:48:05;;;;;;;2.33;2.27;;;;;;;;;;5015954;28;20496;-65
2023/07/23 12:50:31;;;;;;;3.20;2.30;;;;;;;;;;5015712;28;20511;-65
2023/07/23 12:53:00;;;;;;;5.80;2.53;;;;;;;;;;5015907;28;20969;-65
2023/07/23 12:55:26;;;;;;;3.00;2.77;;;;;;;;;;5015718;28;20448;-66
2023/07/23 12:57:52;;;;;;;3.57;2.40;;;;;;;;;;5015703;28;20412;-65
2023/07/23 13:00:18;;;;;;;2.33;2.33;;;;;;;;;;5015522;28;20444;-65
2023/07/23 13:02:45;;;;;;;2.93;2.80;;;;;;;;;;5015558;28;20421;-65
2023/07/23 13:05:11;;;;;;;2.40;2.40;;;;;;;;;;5015490;28;20454;-65
2023/07/23 13:07:39;;;;;;;2.60;2.50;;;;;;;;;;5014181;28;20413;-65
2023/07/23 13:10:05;;;;;;;2.80;2.70;;;;;;;;;;5015400;28;20526;-65
2023/07/23 13:12:32;;;;;;;2.77;2.77;;;;;;;;;;5015499;28;20409;-65
2023/07/23 13:14:58;;;;;;;3.17;3.07;;;;;;;;;;5015633;28;20436;-65
2023/07/23 13:17:24;;;;;;;2.90;2.80;;;;;;;;;;5015331;28;20789;-65
2023/07/23 13:19:52;;;;;;;10.13;3.07;;;;;;;;;;5013795;28;20508;-66
2023/07/23 13:22:18;;;;;;;4.73;3.40;;;;;;;;;;5015111;28;20452;-66
2023/07/23 13:24:44;;;;;;;4.20;3.30;;;;;;;;;;5015086;28;20480;-65
2023/07/23 13:27:13;;;;;;;5.90;5.50;;;;;;;;;;5013948;28;20536;-65
2023/07/23 13:29:38;;;;;;;4.13;3.97;;;;;;;;;;5014840;28;20908;-65
2023/07/23 13:32:05;;;;;;;4.83;3.40;;;;;;;;;;5015109;28;20884;-64
2023/07/23 13:34:31;;;;;;;5.90;5.40;;;;;;;;;;5014892;28;20450;-64
2023/07/23 13:36:57;;;;;;;5.10;4.73;;;;;;;;;;5015005;28;20775;-64
2023/07/23 13:39:23;;;;;;;4.30;4.07;;;;;;;;;;5013512;28;20458;-64
2023/07/23 13:41:48;;;;;;;4.03;3.83;;;;;;;;;;5014971;28;20407;-64
2023/07/23 13:44:14;;;;;;;3.77;3.57;;;;;;;;;;5014763;28;20796;-64
2023/07/23 13:46:40;;;;;;;4.40;4.20;;;;;;;;;;5014626;28;20418;-64
2023/07/23 13:49:06;;;;;;;4.60;4.20;;;;;;;;;;5014725;28;20559;-64
2023/07/23 13:51:32;;;;;;;4.70;4.30;;;;;;;;;;5014922;28;20918;-64
2023/07/23 13:53:58;;;;;;;3.43;3.23;;;;;;;;;;5014477;28;20412;-64
2023/07/23 13:56:24;;;;;;;4.17;3.97;;;;;;;;;;5014670;28;20420;-64
2023/07/23 13:58:50;;;;;;;4.33;4.07;;;;;;;;;;5014547;28;20428;-64
2023/07/23 14:01:19;;;;;;;8.43;4.33;;;;;;;;;;5015194;28;20793;-64
2023/07/23 14:03:47;;;;;;;4.63;4.33;;;;;;;;;;5014359;28;20459;-64
2023/07/23 14:06:16;;;;;;;11.40;4.07;;;;;;;;;;5014562;28;20440;-64
2023/07/23 14:08:42;;;;;;;4.50;4.30;;;;;;;;;;5014374;28;20478;-65
2023/07/23 14:11:08;;;;;;;4.53;4.33;;;;;;;;;;5014406;28;20784;-65
2023/07/23 14:13:35;;;;;;;4.57;4.37;;;;;;;;;;5014396;28;20427;-65
2023/07/23 14:16:03;;;;;;;4.33;4.03;;;;;;;;;;5014155;28;20941;-65
2023/07/23 14:18:29;;;;;;;4.50;4.10;;;;;;;;;;5014336;28;20433;-65
2023/07/23 14:20:55;;;;;;;4.90;4.50;;;;;;;;;;5012575;28;20451;-65
2023/07/23 14:23:21;;;;;;;4.73;4.53;;;;;;;;;;5012709;28;20831;-65
2023/07/23 14:25:47;;;;;;;4.00;3.43;;;;;;;;;;5013720;28;20427;-65
2023/07/23 14:28:13;;;;;;;4.27;3.97;;;;;;;;;;5013936;28;20986;-65
2023/07/23 14:30:39;;;;;;;6.47;6.07;;;;;;;;;;5013931;28;20459;-65
2023/07/23 14:33:05;;;;;;;4.83;4.53;;;;;;;;;;5012622;28;20412;-65
2023/07/23 14:35:32;;;;;;;3.87;3.67;;;;;;;;;;5013747;28;20985;-65
2023/07/23 14:38:00;;;;;;;5.10;4.70;;;;;;;;;;5012444;28;20428;-64
2023/07/23 14:40:26;;;;;;;5.70;5.30;;;;;;;;;;5012483;28;20448;-65
2023/07/23 14:42:52;;;;;;;5.57;5.10;;;;;;;;;;5013718;28;20421;-65